sensor_id;sensor_type;location;lat;lon;timestamp;P1;durP1;ratioP1;P2;durP2;ratioP2
22841;SDS011;11587;47.064;15.444;2023-09-30T00:01:44;0.10;;;0.10;;
22841;SDS011;11587;47.064;15.444;2023-09-30T00:04:10;0.10;;;0.10;;
22841;SDS011;11587;47.064;15.444;2023-09-30T00:06:36;0.10;;;0.10;;
22841;SDS011;11587;47.064;15.444;2023-09-30T00:09:02;0.10;;;0.10;;
22841;SDS011;11587;47.064;15.444;2023-09-30T00:11:30;0.10;;;0.10;;
22841;SDS011;11587;47.064;15.444;2023-09-30T00:13:56;0.20;;;0.20;;
22841;SDS011;11587;47.064;15.444;2023-09-30T00:16:23;0.10;;;0.10;;
22841;SDS011;11587;47.064;15.444;2023-09-30T00:18:49;0.10;;;0.10;;
22841;SDS011;11587;47.064;15.444;2023-09-30T00:21:15;0.20;;;0.20;;
22841;SDS011;11587;47.064;15.444;2023-09-30T00:23:42;0.10;;;0.10;;
22841;SDS011;11587;47.064;15.444;2023-09-30T00:26:08;0.10;;;0.10;;
22841;SDS011;11587;47.064;15.444;2023-09-30T00:28:34;0.10;;;0.10;;
22841;SDS011;11587;47.064;15.444;2023-09-30T00:31:00;0.20;;;0.20;;
22841;SDS011;11587;47.064;15.444;2023-09-30T00:33:26;0.20;;;0.20;;
22841;SDS011;11587;47.064;15.444;2023-09-30T00:35:52;0.20;;;0.20;;
22841;SDS011;11587;47.064;15.444;2023-09-30T00:38:18;0.10;;;0.10;;
22841;SDS011;11587;47.064;15.444;2023-09-30T00:40:48;0.20;;;0.20;;
22841;SDS011;11587;47.064;15.444;2023-09-30T00:43:20;0.20;;;0.20;;
22841;SDS011;11587;47.064;15.444;2023-09-30T00:45:48;0.20;;;0.20;;
22841;SDS011;11587;47.064;15.444;2023-09-30T00:48:14;0.10;;;0.10;;
22841;SDS011;11587;47.064;15.444;2023-09-30T00:50:40;0.10;;;0.10;;
22841;SDS011;11587;47.064;15.444;2023-09-30T00:53:07;0.10;;;0.10;;
22841;SDS011;11587;47.064;15.444;2023-09-30T00:55:33;0.20;;;0.20;;
22841;SDS011;11587;47.064;15.444;2023-09-30T00:57:59;0.20;;;0.20;;
22841;SDS011;11587;47.064;15.444;2023-09-30T01:00:25;0.10;;;0.10;;
22841;SDS011;11587;47.064;15.444;2023-09-30T01:02:51;0.20;;;0.20;;
22841;SDS011;11587;47.064;15.444;2023-09-30T01:05:18;0.17;;;0.17;;
22841;SDS011;11587;47.064;15.444;2023-09-30T01:07:44;0.10;;;0.10;;
22841;SDS011;11587;47.064;15.444;2023-09-30T01:10:10;0.10;;;0.10;;
22841;SDS011;11587;47.064;15.444;2023-09-30T01:12:36;0.20;;;0.20;;
22841;SDS011;11587;47.064;15.444;2023-09-30T01:15:02;0.10;;;0.10;;
22841;SDS011;11587;47.064;15.444;2023-09-30T01:17:31;0.10;;;0.10;;
22841;SDS011;11587;47.064;15.444;2023-09-30T01:19:57;0.20;;;0.20;;
22841;SDS011;11587;47.064;15.444;2023-09-30T01:22:28;0.20;;;0.20;;
22841;SDS011;11587;47.064;15.444;2023-09-30T01:24:55;0.15;;;0.15;;
22841;SDS011;11587;47.064;15.444;2023-09-30T01:27:21;0.20;;;0.20;;
22841;SDS011;11587;47.064;15.444;2023-09-30T01:29:47;0.10;;;0.10;;
22841;SDS011;11587;47.064;15.444;2023-09-30T01:32:14;0.20;;;0.20;;
22841;SDS011;11587;47.064;15.444;2023-09-30T01:34:41;0.10;;;0.10;;
22841;SDS011;11587;47.064;15.444;2023-09-30T01:37:07;0.20;;;0.20;;
22841;SDS011;11587;47.064;15.444;2023-09-30T01:39:33;0.10;;;0.10;;
22841;SDS011;11587;47.064;15.444;2023-09-30T01:41:59;0.10;;;0.10;;
22841;SDS011;11587;47.064;15.444;2023-09-30T01:44:25;0.20;;;0.20;;
22841;SDS011;11587;47.064;15.444;2023-09-30T01:46:51;0.10;;;0.10;;
22841;SDS011;11587;47.064;15.444;2023-09-30T01:49:17;0.10;;;0.10;;
22841;SDS011;11587;47.064;15.444;2023-09-30T01:51:43;0.10;;;0.10;;
22841;SDS011;11587;47.064;15.444;2023-09-30T01:54:10;0.20;;;0.20;;
22841;SDS011;11587;47.064;15.444;2023-09-30T01:56:37;0.10;;;0.10;;
22841;SDS011;11587;47.064;15.444;2023-09-30T01:59:03;0.17;;;0.17;;
22841;SDS011;11587;47.064;15.444;2023-09-30T02:01:29;0.10;;;0.10;;
22841;SDS011;11587;47.064;15.444;2023-09-30T02:03:55;0.20;;;0.20;;
22841;SDS011;11587;47.064;15.444;2023-09-30T02:06:21;0.10;;;0.10;;
22841;SDS011;11587;47.064;15.444;2023-09-30T02:08:47;0.10;;;0.10;;
22841;SDS011;11587;47.064;15.444;2023-09-30T02:11:13;0.10;;;0.10;;
22841;SDS011;11587;47.064;15.444;2023-09-30T02:13:40;0.10;;;0.10;;
22841;SDS011;11587;47.064;15.444;2023-09-30T02:16:11;0.20;;;0.20;;
22841;SDS011;11587;47.064;15.444;2023-09-30T02:18:37;0.10;;;0.10;;
22841;SDS011;11587;47.064;15.444;2023-09-30T02:21:03;0.20;;;0.20;;
22841;SDS011;11587;47.064;15.444;2023-09-30T02:23:29;0.10;;;0.10;;
22841;SDS011;11587;47.064;15.444;2023-09-30T02:25:55;0.10;;;0.10;;
22841;SDS011;11587;47.064;15.444;2023-09-30T02:28:21;0.20;;;0.20;;
22841;SDS011;11587;47.064;15.444;2023-09-30T02:30:47;0.20;;;0.20;;
22841;SDS011;11587;47.064;15.444;2023-09-30T02:33:13;0.10;;;0.10;;
22841;SDS011;11587;47.064;15.444;2023-09-30T02:35:43;0.10;;;0.10;;
22841;SDS011;11587;47.064;15.444;2023-09-30T02:38:10;0.10;;;0.10;;
22841;SDS011;11587;47.064;15.444;2023-09-30T02:40:36;0.10;;;0.10;;
22841;SDS011;11587;47.064;15.444;2023-09-30T02:43:03;0.10;;;0.10;;
22841;SDS011;11587;47.064;15.444;2023-09-30T02:45:29;0.10;;;0.10;;
22841;SDS011;11587;47.064;15.444;2023-09-30T02:47:55;0.10;;;0.10;;
22841;SDS011;11587;47.064;15.444;2023-09-30T02:50:21;0.10;;;0.10;;
22841;SDS011;11587;47.064;15.444;2023-09-30T02:52:47;0.10;;;0.10;;
22841;SDS011;11587;47.064;15.444;2023-09-30T02:55:14;0.10;;;0.10;;
22841;SDS011;11587;47.064;15.444;2023-09-30T02:57:41;0.10;;;0.10;;
22841;SDS011;11587;47.064;15.444;2023-09-30T03:00:08;0.10;;;0.10;;
22841;SDS011;11587;47.064;15.444;2023-09-30T03:02:54;0.10;;;0.10;;
22841;SDS011;11587;47.064;15.444;2023-09-30T03:05:20;0.10;;;0.10;;
22841;SDS011;11587;47.064;15.444;2023-09-30T03:07:46;0.10;;;0.10;;
22841;SDS011;11587;47.064;15.444;2023-09-30T03:10:15;0.10;;;0.10;;
22841;SDS011;11587;47.064;15.444;2023-09-30T03:12:55;0.10;;;0.10;;
22841;SDS011;11587;47.064;15.444;2023-09-30T03:15:26;0.20;;;0.20;;
22841;SDS011;11587;47.064;15.444;2023-09-30T03:17:53;0.10;;;0.10;;
22841;SDS011;11587;47.064;15.444;2023-09-30T03:20:20;0.10;;;0.10;;
22841;SDS011;11587;47.064;15.444;2023-09-30T03:22:47;0.10;;;0.10;;
22841;SDS011;11587;47.064;15.444;2023-09-30T03:25:14;0.10;;;0.10;;
22841;SDS011;11587;47.064;15.444;2023-09-30T03:27:42;0.20;;;0.20;;
22841;SDS011;11587;47.064;15.444;2023-09-30T03:30:08;0.13;;;0.13;;
22841;SDS011;11587;47.064;15.444;2023-09-30T03:32:38;0.20;;;0.20;;
22841;SDS011;11587;47.064;15.444;2023-09-30T03:35:07;0.10;;;0.10;;
22841;SDS011;11587;47.064;15.444;2023-09-30T03:37:36;0.20;;;0.20;;
22841;SDS011;11587;47.064;15.444;2023-09-30T03:40:02;0.20;;;0.20;;
22841;SDS011;11587;47.064;15.444;2023-09-30T03:42:39;0.20;;;0.20;;
22841;SDS011;11587;47.064;15.444;2023-09-30T03:45:05;0.20;;;0.20;;
22841;SDS011;11587;47.064;15.444;2023-09-30T03:47:35;0.10;;;0.10;;
22841;SDS011;11587;47.064;15.444;2023-09-30T03:50:01;0.10;;;0.10;;
22841;SDS011;11587;47.064;15.444;2023-09-30T03:52:28;0.10;;;0.10;;
22841;SDS011;11587;47.064;15.444;2023-09-30T03:54:54;0.10;;;0.10;;
22841;SDS011;11587;47.064;15.444;2023-09-30T03:57:20;0.10;;;0.10;;
22841;SDS011;11587;47.064;15.444;2023-09-30T03:59:46;0.10;;;0.10;;
22841;SDS011;11587;47.064;15.444;2023-09-30T04:02:13;0.10;;;0.10;;
22841;SDS011;11587;47.064;15.444;2023-09-30T04:04:39;0.10;;;0.10;;
22841;SDS011;11587;47.064;15.444;2023-09-30T04:07:05;0.10;;;0.10;;
22841;SDS011;11587;47.064;15.444;2023-09-30T04:09:32;0.10;;;0.10;;
22841;SDS011;11587;47.064;15.444;2023-09-30T04:11:58;0.10;;;0.10;;
22841;SDS011;11587;47.064;15.444;2023-09-30T04:14:26;0.10;;;0.10;;
22841;SDS011;11587;47.064;15.444;2023-09-30T04:16:52;0.10;;;0.10;;
22841;SDS011;11587;47.064;15.444;2023-09-30T04:19:19;0.10;;;0.10;;
22841;SDS011;11587;47.064;15.444;2023-09-30T04:21:46;0.10;;;0.10;;
22841;SDS011;11587;47.064;15.444;2023-09-30T04:24:12;0.10;;;0.10;;
22841;SDS011;11587;47.064;15.444;2023-09-30T04:26:38;0.10;;;0.10;;
22841;SDS011;11587;47.064;15.444;2023-09-30T04:29:05;0.10;;;0.10;;
22841;SDS011;11587;47.064;15.444;2023-09-30T04:31:35;0.10;;;0.10;;
22841;SDS011;11587;47.064;15.444;2023-09-30T04:34:02;0.10;;;0.10;;
22841;SDS011;11587;47.064;15.444;2023-09-30T04:36:29;0.10;;;0.10;;
22841;SDS011;11587;47.064;15.444;2023-09-30T04:38:55;0.10;;;0.10;;
22841;SDS011;11587;47.064;15.444;2023-09-30T04:41:21;0.10;;;0.10;;
22841;SDS011;11587;47.064;15.444;2023-09-30T04:43:50;0.10;;;0.10;;
22841;SDS011;11587;47.064;15.444;2023-09-30T04:46:17;0.10;;;0.10;;
22841;SDS011;11587;47.064;15.444;2023-09-30T04:48:48;0.10;;;0.10;;
22841;SDS011;11587;47.064;15.444;2023-09-30T04:51:17;0.10;;;0.10;;
22841;SDS011;11587;47.064;15.444;2023-09-30T04:53:44;0.10;;;0.10;;
22841;SDS011;11587;47.064;15.444;2023-09-30T04:56:12;0.10;;;0.10;;
22841;SDS011;11587;47.064;15.444;2023-09-30T04:58:38;0.10;;;0.10;;
22841;SDS011;11587;47.064;15.444;2023-09-30T05:01:04;0.10;;;0.10;;
22841;SDS011;11587;47.064;15.444;2023-09-30T05:03:34;0.10;;;0.10;;
22841;SDS011;11587;47.064;15.444;2023-09-30T05:06:00;0.10;;;0.10;;
22841;SDS011;11587;47.064;15.444;2023-09-30T05:08:27;0.10;;;0.10;;
22841;SDS011;11587;47.064;15.444;2023-09-30T05:10:54;0.10;;;0.10;;
22841;SDS011;11587;47.064;15.444;2023-09-30T05:13:21;0.10;;;0.10;;
22841;SDS011;11587;47.064;15.444;2023-09-30T05:15:48;0.20;;;0.20;;
22841;SDS011;11587;47.064;15.444;2023-09-30T05:18:15;0.10;;;0.10;;
22841;SDS011;11587;47.064;15.444;2023-09-30T05:20:41;0.10;;;0.10;;
22841;SDS011;11587;47.064;15.444;2023-09-30T05:23:07;0.10;;;0.10;;
22841;SDS011;11587;47.064;15.444;2023-09-30T05:25:33;0.10;;;0.10;;
22841;SDS011;11587;47.064;15.444;2023-09-30T05:27:59;0.10;;;0.10;;
22841;SDS011;11587;47.064;15.444;2023-09-30T05:30:26;0.20;;;0.20;;
22841;SDS011;11587;47.064;15.444;2023-09-30T05:32:52;0.10;;;0.10;;
22841;SDS011;11587;47.064;15.444;2023-09-30T05:35:18;0.20;;;0.20;;
22841;SDS011;11587;47.064;15.444;2023-09-30T05:37:47;0.20;;;0.20;;
22841;SDS011;11587;47.064;15.444;2023-09-30T05:40:14;0.10;;;0.10;;
22841;SDS011;11587;47.064;15.444;2023-09-30T05:42:52;0.10;;;0.10;;
22841;SDS011;11587;47.064;15.444;2023-09-30T05:45:19;0.10;;;0.10;;
22841;SDS011;11587;47.064;15.444;2023-09-30T05:47:45;0.10;;;0.10;;
22841;SDS011;11587;47.064;15.444;2023-09-30T05:50:11;0.20;;;0.20;;
22841;SDS011;11587;47.064;15.444;2023-09-30T05:52:41;0.10;;;0.10;;
22841;SDS011;11587;47.064;15.444;2023-09-30T05:55:08;0.10;;;0.10;;
22841;SDS011;11587;47.064;15.444;2023-09-30T05:57:34;0.10;;;0.10;;
22841;SDS011;11587;47.064;15.444;2023-09-30T06:00:00;0.10;;;0.10;;
22841;SDS011;11587;47.064;15.444;2023-09-30T06:02:27;0.10;;;0.10;;
22841;SDS011;11587;47.064;15.444;2023-09-30T06:04:54;0.10;;;0.10;;
22841;SDS011;11587;47.064;15.444;2023-09-30T06:07:22;0.10;;;0.10;;
22841;SDS011;11587;47.064;15.444;2023-09-30T06:09:48;0.10;;;0.10;;
22841;SDS011;11587;47.064;15.444;2023-09-30T06:12:14;0.10;;;0.10;;
22841;SDS011;11587;47.064;15.444;2023-09-30T06:14:40;0.10;;;0.10;;
22841;SDS011;11587;47.064;15.444;2023-09-30T06:17:07;0.10;;;0.10;;
22841;SDS011;11587;47.064;15.444;2023-09-30T06:19:33;0.10;;;0.10;;
22841;SDS011;11587;47.064;15.444;2023-09-30T06:21:59;0.10;;;0.10;;
22841;SDS011;11587;47.064;15.444;2023-09-30T06:24:28;0.10;;;0.10;;
22841;SDS011;11587;47.064;15.444;2023-09-30T06:26:54;0.10;;;0.10;;
22841;SDS011;11587;47.064;15.444;2023-09-30T06:29:20;0.10;;;0.10;;
22841;SDS011;11587;47.064;15.444;2023-09-30T06:31:46;0.10;;;0.10;;
22841;SDS011;11587;47.064;15.444;2023-09-30T06:34:12;0.10;;;0.10;;
22841;SDS011;11587;47.064;15.444;2023-09-30T06:36:38;0.10;;;0.10;;
22841;SDS011;11587;47.064;15.444;2023-09-30T06:39:05;0.10;;;0.10;;
22841;SDS011;11587;47.064;15.444;2023-09-30T06:41:31;0.10;;;0.10;;
22841;SDS011;11587;47.064;15.444;2023-09-30T06:43:58;0.10;;;0.10;;
22841;SDS011;11587;47.064;15.444;2023-09-30T06:46:24;0.10;;;0.10;;
22841;SDS011;11587;47.064;15.444;2023-09-30T06:48:50;0.10;;;0.10;;
22841;SDS011;11587;47.064;15.444;2023-09-30T06:51:17;0.10;;;0.10;;
22841;SDS011;11587;47.064;15.444;2023-09-30T06:53:43;0.10;;;0.10;;
22841;SDS011;11587;47.064;15.444;2023-09-30T06:56:10;0.10;;;0.10;;
22841;SDS011;11587;47.064;15.444;2023-09-30T06:58:38;0.10;;;0.10;;
22841;SDS011;11587;47.064;15.444;2023-09-30T07:01:04;0.10;;;0.10;;
22841;SDS011;11587;47.064;15.444;2023-09-30T07:03:30;0.10;;;0.10;;
22841;SDS011;11587;47.064;15.444;2023-09-30T07:05:57;0.10;;;0.10;;
22841;SDS011;11587;47.064;15.444;2023-09-30T07:08:26;0.10;;;0.10;;
22841;SDS011;11587;47.064;15.444;2023-09-30T07:10:53;0.10;;;0.10;;
22841;SDS011;11587;47.064;15.444;2023-09-30T07:13:19;0.10;;;0.10;;
22841;SDS011;11587;47.064;15.444;2023-09-30T07:15:45;0.10;;;0.10;;
22841;SDS011;11587;47.064;15.444;2023-09-30T07:18:11;0.10;;;0.10;;
22841;SDS011;11587;47.064;15.444;2023-09-30T07:20:38;0.10;;;0.10;;
22841;SDS011;11587;47.064;15.444;2023-09-30T07:23:04;0.10;;;0.10;;
22841;SDS011;11587;47.064;15.444;2023-09-30T07:25:30;0.10;;;0.10;;
22841;SDS011;11587;47.064;15.444;2023-09-30T07:28:00;0.10;;;0.10;;
22841;SDS011;11587;47.064;15.444;2023-09-30T07:30:26;0.10;;;0.10;;
22841;SDS011;11587;47.064;15.444;2023-09-30T07:32:52;0.10;;;0.10;;
22841;SDS011;11587;47.064;15.444;2023-09-30T07:35:18;0.10;;;0.10;;
22841;SDS011;11587;47.064;15.444;2023-09-30T07:37:44;0.10;;;0.10;;
22841;SDS011;11587;47.064;15.444;2023-09-30T07:40:11;0.10;;;0.10;;
22841;SDS011;11587;47.064;15.444;2023-09-30T07:42:37;0.10;;;0.10;;
22841;SDS011;11587;47.064;15.444;2023-09-30T07:45:03;0.10;;;0.10;;
22841;SDS011;11587;47.064;15.444;2023-09-30T07:47:29;0.10;;;0.10;;
22841;SDS011;11587;47.064;15.444;2023-09-30T07:49:57;0.00;;;0.00;;
22841;SDS011;11587;47.064;15.444;2023-09-30T07:52:25;0.10;;;0.10;;
22841;SDS011;11587;47.064;15.444;2023-09-30T07:54:51;0.03;;;0.03;;
22841;SDS011;11587;47.064;15.444;2023-09-30T07:57:17;0.10;;;0.10;;
22841;SDS011;11587;47.064;15.444;2023-09-30T07:59:44;0.10;;;0.10;;
22841;SDS011;11587;47.064;15.444;2023-09-30T08:02:10;0.10;;;0.10;;
22841;SDS011;11587;47.064;15.444;2023-09-30T08:04:36;0.10;;;0.10;;
22841;SDS011;11587;47.064;15.444;2023-09-30T08:07:02;0.10;;;0.10;;
22841;SDS011;11587;47.064;15.444;2023-09-30T08:09:28;0.10;;;0.10;;
22841;SDS011;11587;47.064;15.444;2023-09-30T08:11:54;0.10;;;0.10;;
22841;SDS011;11587;47.064;15.444;2023-09-30T08:14:21;0.10;;;0.10;;
22841;SDS011;11587;47.064;15.444;2023-09-30T08:16:47;0.10;;;0.10;;
22841;SDS011;11587;47.064;15.444;2023-09-30T08:19:14;0.10;;;0.10;;
22841;SDS011;11587;47.064;15.444;2023-09-30T08:21:40;0.10;;;0.10;;
22841;SDS011;11587;47.064;15.444;2023-09-30T08:24:06;0.10;;;0.10;;
22841;SDS011;11587;47.064;15.444;2023-09-30T08:26:33;0.10;;;0.10;;
22841;SDS011;11587;47.064;15.444;2023-09-30T08:29:00;0.08;;;0.08;;
22841;SDS011;11587;47.064;15.444;2023-09-30T08:31:27;0.10;;;0.10;;
22841;SDS011;11587;47.064;15.444;2023-09-30T08:33:54;0.00;;;0.00;;
22841;SDS011;11587;47.064;15.444;2023-09-30T08:36:20;0.00;;;0.00;;
22841;SDS011;11587;47.064;15.444;2023-09-30T08:38:46;0.00;;;0.00;;
22841;SDS011;11587;47.064;15.444;2023-09-30T08:41:14;0.00;;;0.00;;
22841;SDS011;11587;47.064;15.444;2023-09-30T08:43:51;0.00;;;0.00;;
22841;SDS011;11587;47.064;15.444;2023-09-30T08:46:18;0.00;;;0.00;;
22841;SDS011;11587;47.064;15.444;2023-09-30T08:48:45;0.00;;;0.00;;
22841;SDS011;11587;47.064;15.444;2023-09-30T08:51:12;0.10;;;0.10;;
22841;SDS011;11587;47.064;15.444;2023-09-30T08:53:38;0.00;;;0.00;;
22841;SDS011;11587;47.064;15.444;2023-09-30T08:56:05;0.10;;;0.10;;
22841;SDS011;11587;47.064;15.444;2023-09-30T08:58:35;0.00;;;0.00;;
22841;SDS011;11587;47.064;15.444;2023-09-30T09:01:01;0.10;;;0.10;;
22841;SDS011;11587;47.064;15.444;2023-09-30T09:03:27;0.00;;;0.00;;
22841;SDS011;11587;47.064;15.444;2023-09-30T09:05:57;0.00;;;0.00;;
22841;SDS011;11587;47.064;15.444;2023-09-30T09:08:25;0.10;;;0.10;;
22841;SDS011;11587;47.064;15.444;2023-09-30T09:10:58;0.08;;;0.08;;
22841;SDS011;11587;47.064;15.444;2023-09-30T09:13:24;0.00;;;0.00;;
22841;SDS011;11587;47.064;15.444;2023-09-30T09:16:12;0.10;;;0.10;;
22841;SDS011;11587;47.064;15.444;2023-09-30T09:18:37;0.10;;;0.10;;
22841;SDS011;11587;47.064;15.444;2023-09-30T09:23:46;0.00;;;0.00;;
22841;SDS011;11587;47.064;15.444;2023-09-30T09:26:33;0.00;;;0.00;;
22841;SDS011;11587;47.064;15.444;2023-09-30T09:29:01;0.00;;;0.00;;
22841;SDS011;11587;47.064;15.444;2023-09-30T09:31:28;0.00;;;0.00;;
22841;SDS011;11587;47.064;15.444;2023-09-30T09:36:53;0.00;;;0.00;;
22841;SDS011;11587;47.064;15.444;2023-09-30T09:39:28;0.00;;;0.00;;
22841;SDS011;11587;47.064;15.444;2023-09-30T09:41:55;0.00;;;0.00;;
22841;SDS011;11587;47.064;15.444;2023-09-30T09:44:23;0.00;;;0.00;;
22841;SDS011;11587;47.064;15.444;2023-09-30T09:46:52;0.00;;;0.00;;
22841;SDS011;11587;47.064;15.444;2023-09-30T09:49:19;0.00;;;0.00;;
22841;SDS011;11587;47.064;15.444;2023-09-30T09:51:45;0.00;;;0.00;;
22841;SDS011;11587;47.064;15.444;2023-09-30T09:54:11;0.00;;;0.00;;
22841;SDS011;11587;47.064;15.444;2023-09-30T09:56:38;0.00;;;0.00;;
22841;SDS011;11587;47.064;15.444;2023-09-30T09:59:05;0.00;;;0.00;;
22841;SDS011;11587;47.064;15.444;2023-09-30T10:01:34;0.10;;;0.10;;
22841;SDS011;11587;47.064;15.444;2023-09-30T10:04:01;0.00;;;0.00;;
22841;SDS011;11587;47.064;15.444;2023-09-30T10:06:27;0.10;;;0.10;;
22841;SDS011;11587;47.064;15.444;2023-09-30T10:08:53;0.10;;;0.10;;
22841;SDS011;11587;47.064;15.444;2023-09-30T10:11:20;0.00;;;0.00;;
22841;SDS011;11587;47.064;15.444;2023-09-30T10:13:53;0.00;;;0.00;;
22841;SDS011;11587;47.064;15.444;2023-09-30T10:19:27;0.00;;;0.00;;
22841;SDS011;11587;47.064;15.444;2023-09-30T10:24:43;0.00;;;0.00;;
22841;SDS011;11587;47.064;15.444;2023-09-30T10:30:08;0.00;;;0.00;;
22841;SDS011;11587;47.064;15.444;2023-09-30T10:35:18;0.00;;;0.00;;
22841;SDS011;11587;47.064;15.444;2023-09-30T10:37:44;0.00;;;0.00;;
22841;SDS011;11587;47.064;15.444;2023-09-30T10:40:26;0.00;;;0.00;;
22841;SDS011;11587;47.064;15.444;2023-09-30T10:42:52;0.00;;;0.00;;
22841;SDS011;11587;47.064;15.444;2023-09-30T10:50:57;0.00;;;0.00;;
22841;SDS011;11587;47.064;15.444;2023-09-30T10:53:27;0.00;;;0.00;;
22841;SDS011;11587;47.064;15.444;2023-09-30T10:55:57;0.00;;;0.00;;
22841;SDS011;11587;47.064;15.444;2023-09-30T11:01:05;0.00;;;0.00;;
22841;SDS011;11587;47.064;15.444;2023-09-30T11:03:31;0.00;;;0.00;;
22841;SDS011;11587;47.064;15.444;2023-09-30T11:05:57;0.00;;;0.00;;
22841;SDS011;11587;47.064;15.444;2023-09-30T11:08:23;0.00;;;0.00;;
22841;SDS011;11587;47.064;15.444;2023-09-30T11:11:07;0.00;;;0.00;;
22841;SDS011;11587;47.064;15.444;2023-09-30T11:13:33;0.00;;;0.00;;
22841;SDS011;11587;47.064;15.444;2023-09-30T11:16:04;0.00;;;0.00;;
22841;SDS011;11587;47.064;15.444;2023-09-30T11:18:30;0.00;;;0.00;;
22841;SDS011;11587;47.064;15.444;2023-09-30T11:21:09;0.00;;;0.00;;
22841;SDS011;11587;47.064;15.444;2023-09-30T11:23:37;0.00;;;0.00;;
22841;SDS011;11587;47.064;15.444;2023-09-30T11:26:03;0.00;;;0.00;;
22841;SDS011;11587;47.064;15.444;2023-09-30T11:28:48;0.00;;;0.00;;
22841;SDS011;11587;47.064;15.444;2023-09-30T11:31:14;0.00;;;0.00;;
22841;SDS011;11587;47.064;15.444;2023-09-30T11:33:51;0.00;;;0.00;;
22841;SDS011;11587;47.064;15.444;2023-09-30T11:36:18;0.00;;;0.00;;
22841;SDS011;11587;47.064;15.444;2023-09-30T11:38:45;0.00;;;0.00;;
22841;SDS011;11587;47.064;15.444;2023-09-30T11:41:12;0.00;;;0.00;;
22841;SDS011;11587;47.064;15.444;2023-09-30T11:43:39;0.00;;;0.00;;
22841;SDS011;11587;47.064;15.444;2023-09-30T11:46:09;0.00;;;0.00;;
22841;SDS011;11587;47.064;15.444;2023-09-30T11:48:40;0.00;;;0.00;;
22841;SDS011;11587;47.064;15.444;2023-09-30T11:51:22;0.00;;;0.00;;
22841;SDS011;11587;47.064;15.444;2023-09-30T11:53:49;0.00;;;0.00;;
22841;SDS011;11587;47.064;15.444;2023-09-30T11:56:19;0.00;;;0.00;;
22841;SDS011;11587;47.064;15.444;2023-09-30T11:58:45;0.00;;;0.00;;
22841;SDS011;11587;47.064;15.444;2023-09-30T12:01:15;0.00;;;0.00;;
22841;SDS011;11587;47.064;15.444;2023-09-30T12:03:41;0.00;;;0.00;;
22841;SDS011;11587;47.064;15.444;2023-09-30T12:06:07;0.00;;;0.00;;
22841;SDS011;11587;47.064;15.444;2023-09-30T12:08:38;0.00;;;0.00;;
22841;SDS011;11587;47.064;15.444;2023-09-30T12:11:04;0.00;;;0.00;;
22841;SDS011;11587;47.064;15.444;2023-09-30T12:13:30;0.00;;;0.00;;
22841;SDS011;11587;47.064;15.444;2023-09-30T12:15:57;0.00;;;0.00;;
22841;SDS011;11587;47.064;15.444;2023-09-30T12:18:23;0.00;;;0.00;;
22841;SDS011;11587;47.064;15.444;2023-09-30T12:20:49;0.00;;;0.00;;
22841;SDS011;11587;47.064;15.444;2023-09-30T12:23:17;0.00;;;0.00;;
22841;SDS011;11587;47.064;15.444;2023-09-30T12:25:43;0.00;;;0.00;;
22841;SDS011;11587;47.064;15.444;2023-09-30T12:28:09;0.00;;;0.00;;
22841;SDS011;11587;47.064;15.444;2023-09-30T12:30:35;0.00;;;0.00;;
22841;SDS011;11587;47.064;15.444;2023-09-30T12:33:01;0.00;;;0.00;;
22841;SDS011;11587;47.064;15.444;2023-09-30T12:35:27;0.00;;;0.00;;
22841;SDS011;11587;47.064;15.444;2023-09-30T12:37:54;0.00;;;0.00;;
22841;SDS011;11587;47.064;15.444;2023-09-30T12:40:20;0.00;;;0.00;;
22841;SDS011;11587;47.064;15.444;2023-09-30T12:42:46;0.00;;;0.00;;
22841;SDS011;11587;47.064;15.444;2023-09-30T12:45:12;0.00;;;0.00;;
22841;SDS011;11587;47.064;15.444;2023-09-30T12:47:38;0.00;;;0.00;;
22841;SDS011;11587;47.064;15.444;2023-09-30T12:50:05;0.00;;;0.00;;
22841;SDS011;11587;47.064;15.444;2023-09-30T12:52:34;0.00;;;0.00;;
22841;SDS011;11587;47.064;15.444;2023-09-30T12:55:00;0.00;;;0.00;;
22841;SDS011;11587;47.064;15.444;2023-09-30T12:57:26;0.00;;;0.00;;
22841;SDS011;11587;47.064;15.444;2023-09-30T12:59:52;0.00;;;0.00;;
22841;SDS011;11587;47.064;15.444;2023-09-30T13:02:18;0.00;;;0.00;;
22841;SDS011;11587;47.064;15.444;2023-09-30T13:04:44;0.00;;;0.00;;
22841;SDS011;11587;47.064;15.444;2023-09-30T13:07:11;0.00;;;0.00;;
22841;SDS011;11587;47.064;15.444;2023-09-30T13:09:38;0.00;;;0.00;;
22841;SDS011;11587;47.064;15.444;2023-09-30T13:12:04;0.00;;;0.00;;
22841;SDS011;11587;47.064;15.444;2023-09-30T13:14:30;0.00;;;0.00;;
22841;SDS011;11587;47.064;15.444;2023-09-30T13:16:56;0.00;;;0.00;;
22841;SDS011;11587;47.064;15.444;2023-09-30T13:19:22;0.00;;;0.00;;
22841;SDS011;11587;47.064;15.444;2023-09-30T13:21:51;0.00;;;0.00;;
22841;SDS011;11587;47.064;15.444;2023-09-30T13:24:21;0.00;;;0.00;;
22841;SDS011;11587;47.064;15.444;2023-09-30T13:26:47;0.00;;;0.00;;
22841;SDS011;11587;47.064;15.444;2023-09-30T13:29:13;0.00;;;0.00;;
22841;SDS011;11587;47.064;15.444;2023-09-30T13:31:41;0.00;;;0.00;;
22841;SDS011;11587;47.064;15.444;2023-09-30T13:34:07;0.00;;;0.00;;
22841;SDS011;11587;47.064;15.444;2023-09-30T13:36:33;0.00;;;0.00;;
22841;SDS011;11587;47.064;15.444;2023-09-30T13:39:00;0.00;;;0.00;;
22841;SDS011;11587;47.064;15.444;2023-09-30T13:41:26;0.00;;;0.00;;
22841;SDS011;11587;47.064;15.444;2023-09-30T13:43:52;0.00;;;0.00;;
22841;SDS011;11587;47.064;15.444;2023-09-30T13:46:19;0.00;;;0.00;;
22841;SDS011;11587;47.064;15.444;2023-09-30T13:48:49;0.00;;;0.00;;
22841;SDS011;11587;47.064;15.444;2023-09-30T13:51:17;0.00;;;0.00;;
22841;SDS011;11587;47.064;15.444;2023-09-30T13:53:43;0.00;;;0.00;;
22841;SDS011;11587;47.064;15.444;2023-09-30T13:56:09;0.00;;;0.00;;
22841;SDS011;11587;47.064;15.444;2023-09-30T13:58:36;0.00;;;0.00;;
22841;SDS011;11587;47.064;15.444;2023-09-30T14:01:02;0.00;;;0.00;;
22841;SDS011;11587;47.064;15.444;2023-09-30T14:03:28;0.00;;;0.00;;
22841;SDS011;11587;47.064;15.444;2023-09-30T14:05:54;0.00;;;0.00;;
22841;SDS011;11587;47.064;15.444;2023-09-30T14:08:22;0.00;;;0.00;;
22841;SDS011;11587;47.064;15.444;2023-09-30T14:10:49;0.00;;;0.00;;
22841;SDS011;11587;47.064;15.444;2023-09-30T14:13:16;0.00;;;0.00;;
22841;SDS011;11587;47.064;15.444;2023-09-30T14:15:42;0.00;;;0.00;;
22841;SDS011;11587;47.064;15.444;2023-09-30T14:18:08;0.00;;;0.00;;
22841;SDS011;11587;47.064;15.444;2023-09-30T14:20:34;0.00;;;0.00;;
22841;SDS011;11587;47.064;15.444;2023-09-30T14:23:01;0.00;;;0.00;;
22841;SDS011;11587;47.064;15.444;2023-09-30T14:25:27;0.00;;;0.00;;
22841;SDS011;11587;47.064;15.444;2023-09-30T14:27:53;0.00;;;0.00;;
22841;SDS011;11587;47.064;15.444;2023-09-30T14:30:19;0.00;;;0.00;;
22841;SDS011;11587;47.064;15.444;2023-09-30T14:32:46;0.00;;;0.00;;
22841;SDS011;11587;47.064;15.444;2023-09-30T14:35:12;0.00;;;0.00;;
22841;SDS011;11587;47.064;15.444;2023-09-30T14:37:38;0.00;;;0.00;;
22841;SDS011;11587;47.064;15.444;2023-09-30T14:40:05;0.00;;;0.00;;
22841;SDS011;11587;47.064;15.444;2023-09-30T14:42:36;0.00;;;0.00;;
22841;SDS011;11587;47.064;15.444;2023-09-30T14:45:02;0.00;;;0.00;;
22841;SDS011;11587;47.064;15.444;2023-09-30T14:47:28;0.00;;;0.00;;
22841;SDS011;11587;47.064;15.444;2023-09-30T14:49:54;0.00;;;0.00;;
22841;SDS011;11587;47.064;15.444;2023-09-30T14:52:21;0.00;;;0.00;;
22841;SDS011;11587;47.064;15.444;2023-09-30T14:54:47;0.00;;;0.00;;
22841;SDS011;11587;47.064;15.444;2023-09-30T14:57:13;0.00;;;0.00;;
22841;SDS011;11587;47.064;15.444;2023-09-30T14:59:41;0.00;;;0.00;;